createdAt,value
2017-07-11T00:00:15.392Z,1003.62
2017-07-11T00:00:56.286Z,1003.56
2017-07-11T00:01:37.173Z,1003.6
2017-07-11T00:02:18.063Z,1003.52
2017-07-11T00:02:58.964Z,1003.53
2017-07-11T00:03:39.856Z,1003.51
2017-07-11T00:04:20.759Z,1003.5
2017-07-11T00:05:01.649Z,1003.49
2017-07-11T00:05:42.542Z,1003.5
2017-07-11T00:06:23.436Z,1003.48
2017-07-11T00:07:04.320Z,1003.55
2017-07-11T00:07:45.213Z,1003.52
2017-07-11T00:08:26.107Z,1003.54
2017-07-11T00:09:06.991Z,1003.52
2017-07-11T00:09:47.884Z,1003.52
2017-07-11T00:10:28.783Z,1003.55
2017-07-11T00:11:09.666Z,1003.51
2017-07-11T00:11:50.562Z,1003.55
2017-07-11T00:12:31.460Z,1003.55
2017-07-11T00:13:12.348Z,1003.55
2017-07-11T00:13:53.242Z,1003.59
2017-07-11T00:14:34.139Z,1003.58
2017-07-11T00:15:15.021Z,1003.61
2017-07-11T00:15:55.908Z,1003.57
2017-07-11T00:16:36.819Z,1003.61
2017-07-11T00:17:17.703Z,1003.67
2017-07-11T00:17:58.592Z,1003.67
2017-07-11T00:18:39.492Z,1003.68
2017-07-11T00:19:20.376Z,1003.68
2017-07-11T00:20:01.284Z,1003.68
2017-07-11T00:20:42.165Z,1003.7
2017-07-11T00:21:23.049Z,1003.68
2017-07-11T00:22:03.939Z,1003.73
2017-07-11T00:22:44.845Z,1003.71
2017-07-11T00:23:25.741Z,1003.73
2017-07-11T00:24:06.625Z,1003.77
2017-07-11T00:24:47.519Z,1003.81
2017-07-11T00:25:28.405Z,1003.77
2017-07-11T00:26:09.297Z,1003.8
2017-07-11T00:26:50.201Z,1003.76
2017-07-11T00:27:31.084Z,1003.8
2017-07-11T00:28:11.973Z,1003.83
2017-07-11T00:28:52.867Z,1003.84
2017-07-11T00:29:33.758Z,1003.8
2017-07-11T00:30:14.646Z,1003.81
2017-07-11T00:30:55.544Z,1003.87
2017-07-11T00:31:36.431Z,1004.01
2017-07-11T00:32:17.319Z,1003.95
2017-07-11T00:32:58.214Z,1004.06
2017-07-11T00:33:39.101Z,1004.01
2017-07-11T00:34:19.978Z,1004.13
2017-07-11T00:35:00.860Z,1004.12
2017-07-11T00:35:41.757Z,1004.13
2017-07-11T00:36:22.647Z,1004.23
2017-07-11T00:37:03.546Z,1004.24
2017-07-11T00:37:44.430Z,1004.3
2017-07-11T00:38:25.319Z,1004.25
2017-07-11T00:39:06.211Z,1004.28
2017-07-11T00:39:47.110Z,1004.27
2017-07-11T00:40:27.995Z,1004.25
2017-07-11T00:41:08.881Z,1004.3
2017-07-11T00:41:49.776Z,1004.22
2017-07-11T00:42:30.664Z,1004.24
2017-07-11T00:43:11.558Z,1004.19
2017-07-11T00:43:52.444Z,1004.22
2017-07-11T00:44:33.339Z,1004.19
2017-07-11T00:45:14.266Z,1004.19
2017-07-11T00:45:55.164Z,1004.18
2017-07-11T00:46:36.056Z,1004.2
2017-07-11T00:47:16.958Z,1004.21
2017-07-11T00:47:57.844Z,1004.27
2017-07-11T00:48:38.738Z,1004.24
2017-07-11T00:49:19.630Z,1004.29
2017-07-11T00:50:00.516Z,1004.25
2017-07-11T00:50:41.401Z,1004.34
2017-07-11T00:51:22.284Z,1004.3
2017-07-11T00:52:03.181Z,1004.34
2017-07-11T00:52:44.055Z,1004.32
2017-07-11T00:53:24.935Z,1004.29
2017-07-11T00:54:05.843Z,1004.32
2017-07-11T00:54:46.731Z,1004.26
2017-07-11T00:55:27.631Z,1004.26
2017-07-11T00:56:08.526Z,1004.29
2017-07-11T00:56:49.429Z,1004.29
2017-07-11T00:57:30.327Z,1004.27
2017-07-11T00:58:11.219Z,1004.3
2017-07-11T00:58:52.146Z,1004.28
2017-07-11T00:59:33.031Z,1004.29
2017-07-11T01:00:13.914Z,1004.32
2017-07-11T01:00:54.805Z,1004.3
2017-07-11T01:01:35.706Z,1004.31
2017-07-11T01:02:16.588Z,1004.3
2017-07-11T01:02:57.462Z,1004.31
2017-07-11T01:03:38.342Z,1004.28
2017-07-11T01:04:19.237Z,1004.3
2017-07-11T01:05:00.118Z,1004.28
2017-07-11T01:05:41.023Z,1004.27
2017-07-11T01:06:21.908Z,1004.29
2017-07-11T01:07:02.794Z,1004.29
2017-07-11T01:07:43.685Z,1004.26
2017-07-11T01:08:24.568Z,1004.29
2017-07-11T01:09:05.450Z,1004.25
2017-07-11T01:09:46.333Z,1004.26
2017-07-11T01:10:27.233Z,1004.29
2017-07-11T01:11:08.118Z,1004.29
2017-07-11T01:11:49.009Z,1004.28
2017-07-11T01:12:29.918Z,1004.24
2017-07-11T01:13:10.814Z,1004.25
2017-07-11T01:13:51.697Z,1004.22
2017-07-11T01:14:32.583Z,1004.27
2017-07-11T01:15:13.474Z,1004.27
2017-07-11T01:15:54.366Z,1004.3
2017-07-11T01:16:35.257Z,1004.31
2017-07-11T01:17:16.146Z,1004.31
2017-07-11T01:17:57.040Z,1004.29
2017-07-11T01:18:37.953Z,1004.33
2017-07-11T01:19:18.845Z,1004.32
2017-07-11T01:19:59.734Z,1004.37
2017-07-11T01:20:40.624Z,1004.33
2017-07-11T01:21:21.517Z,1004.33
2017-07-11T01:22:02.424Z,1004.36
2017-07-11T01:22:43.315Z,1004.33
2017-07-11T01:23:24.210Z,1004.33
2017-07-11T01:24:05.098Z,1004.34
2017-07-11T01:24:46.000Z,1004.38
2017-07-11T01:25:26.902Z,1004.35
2017-07-11T01:26:07.775Z,1004.34
2017-07-11T01:26:48.664Z,1004.36
2017-07-11T01:27:29.566Z,1004.37
2017-07-11T01:28:10.485Z,1004.34
2017-07-11T01:28:51.369Z,1004.31
2017-07-11T01:29:32.269Z,1004.34
2017-07-11T01:30:13.157Z,1004.33
2017-07-11T01:30:54.039Z,1004.37
2017-07-11T01:31:34.945Z,1004.36
2017-07-11T01:32:15.838Z,1004.36
2017-07-11T01:32:56.720Z,1004.43
2017-07-11T01:33:37.623Z,1004.4
2017-07-11T01:34:18.508Z,1004.41
2017-07-11T01:34:59.394Z,1004.38
2017-07-11T01:35:40.278Z,1004.35
2017-07-11T01:36:21.174Z,1004.39
2017-07-11T01:37:02.069Z,1004.37
2017-07-11T01:37:42.956Z,1004.4
2017-07-11T01:38:23.855Z,1004.38
2017-07-11T01:39:04.733Z,1004.32
2017-07-11T01:39:45.631Z,1004.3
2017-07-11T01:40:26.521Z,1004.26
2017-07-11T01:41:07.408Z,1004.29
2017-07-11T01:41:48.302Z,1004.26
2017-07-11T01:42:29.190Z,1004.25
2017-07-11T01:43:10.084Z,1004.23
2017-07-11T01:43:50.965Z,1004.25
2017-07-11T01:44:31.856Z,1004.19
2017-07-11T01:45:12.744Z,1004.22
2017-07-11T01:45:53.637Z,1004.23
2017-07-11T01:46:34.539Z,1004.2
2017-07-11T01:47:15.422Z,1004.2
2017-07-11T01:47:56.309Z,1004.2
2017-07-11T01:48:37.209Z,1004.23
2017-07-11T01:49:18.089Z,1004.19
2017-07-11T01:49:58.972Z,1004.2
2017-07-11T01:50:39.864Z,1004.2
2017-07-11T01:51:20.749Z,1004.23
2017-07-11T01:52:01.631Z,1004.2
2017-07-11T01:52:42.526Z,1004.24
2017-07-11T01:53:23.420Z,1004.25
2017-07-11T01:54:04.308Z,1004.26
2017-07-11T01:54:45.203Z,1004.24
2017-07-11T01:55:26.098Z,1004.27
2017-07-11T01:56:06.993Z,1004.26
2017-07-11T01:56:47.895Z,1004.27
2017-07-11T01:57:28.783Z,1004.3
2017-07-11T01:58:09.669Z,1004.31
2017-07-11T01:58:50.555Z,1004.34
2017-07-11T01:59:31.450Z,1004.34
2017-07-11T02:00:12.332Z,1004.37
2017-07-11T02:00:53.215Z,1004.35
2017-07-11T02:01:34.114Z,1004.39
2017-07-11T02:02:15.013Z,1004.37
2017-07-11T02:02:55.909Z,1004.36
2017-07-11T02:03:36.809Z,1004.36
2017-07-11T02:04:17.692Z,1004.37
2017-07-11T02:04:58.574Z,1004.42
2017-07-11T02:05:39.477Z,1004.35
2017-07-11T02:06:20.358Z,1004.37
2017-07-11T02:07:01.252Z,1004.43
2017-07-11T02:07:42.161Z,1004.46
2017-07-11T02:08:23.055Z,1004.46
2017-07-11T02:09:03.948Z,1004.44
2017-07-11T02:09:44.840Z,1004.44
2017-07-11T02:10:25.715Z,1004.49
2017-07-11T02:11:06.624Z,1004.48
2017-07-11T02:11:47.507Z,1004.53
2017-07-11T02:12:28.387Z,1004.5
2017-07-11T02:13:09.287Z,1004.57
2017-07-11T02:13:50.180Z,1004.57
2017-07-11T02:14:31.061Z,1004.56
2017-07-11T02:15:11.924Z,1004.61
2017-07-11T02:15:52.797Z,1004.62
2017-07-11T02:16:33.681Z,1004.61
2017-07-11T02:17:14.579Z,1004.62
2017-07-11T02:17:55.466Z,1004.62
2017-07-11T02:18:36.359Z,1004.63
2017-07-11T02:19:17.248Z,1004.58
2017-07-11T02:19:58.139Z,1004.59
2017-07-11T02:20:39.038Z,1004.59
2017-07-11T02:21:19.927Z,1004.62
2017-07-11T02:22:00.810Z,1004.61
2017-07-11T02:22:41.707Z,1004.65
2017-07-11T02:23:22.602Z,1004.62
2017-07-11T02:24:03.537Z,1004.59
2017-07-11T02:24:44.358Z,1004.57
2017-07-11T02:25:25.253Z,1004.61
2017-07-11T02:26:06.173Z,1004.59
2017-07-11T02:26:47.035Z,1004.62
2017-07-11T02:27:27.927Z,1004.57
2017-07-11T02:28:08.813Z,1004.59
2017-07-11T02:28:49.702Z,1004.59
2017-07-11T02:29:30.650Z,1004.59
2017-07-11T02:30:11.515Z,1004.59
2017-07-11T02:30:52.422Z,1004.57
2017-07-11T02:31:33.317Z,1004.63
2017-07-11T02:32:14.196Z,1004.63
2017-07-11T02:32:55.085Z,1004.65
2017-07-11T02:33:35.991Z,1004.65
2017-07-11T02:34:16.881Z,1004.62
2017-07-11T02:34:57.782Z,1004.6
2017-07-11T02:35:38.683Z,1004.61
2017-07-11T02:36:19.567Z,1004.61
2017-07-11T02:37:00.462Z,1004.58
2017-07-11T02:37:41.363Z,1004.6
2017-07-11T02:38:22.223Z,1004.61
2017-07-11T02:39:03.107Z,1004.61
2017-07-11T02:39:44.005Z,1004.6
2017-07-11T02:40:24.900Z,1004.63
2017-07-11T02:41:05.793Z,1004.63
2017-07-11T02:41:46.689Z,1004.62
2017-07-11T02:42:27.570Z,1004.63
2017-07-11T02:43:08.496Z,1004.64
2017-07-11T02:43:49.379Z,1004.7
2017-07-11T02:44:30.261Z,1004.67
2017-07-11T02:45:11.146Z,1004.69
2017-07-11T02:45:52.042Z,1004.7
2017-07-11T02:46:32.929Z,1004.66
2017-07-11T02:47:13.809Z,1004.69
2017-07-11T02:47:54.701Z,1004.7
2017-07-11T02:48:35.591Z,1004.72
2017-07-11T02:49:16.477Z,1004.72
2017-07-11T02:49:57.377Z,1004.76
2017-07-11T02:50:38.266Z,1004.72
2017-07-11T02:51:19.148Z,1004.7
2017-07-11T02:52:00.040Z,1004.69
2017-07-11T02:52:40.943Z,1004.67
2017-07-11T02:53:21.846Z,1004.66
2017-07-11T02:54:02.748Z,1004.69
2017-07-11T02:54:43.637Z,1004.7
2017-07-11T02:55:24.530Z,1004.78
2017-07-11T02:56:05.410Z,1004.72
2017-07-11T02:56:46.302Z,1004.7
2017-07-11T02:57:27.191Z,1004.69
2017-07-11T02:58:08.073Z,1004.72
2017-07-11T02:58:48.958Z,1004.71
2017-07-11T02:59:29.834Z,1004.72
2017-07-11T03:00:10.727Z,1004.66
2017-07-11T03:00:51.611Z,1004.64
2017-07-11T03:01:32.507Z,1004.7
2017-07-11T03:02:13.398Z,1004.72
2017-07-11T03:02:54.281Z,1004.72
2017-07-11T03:03:35.216Z,1004.73
2017-07-11T03:04:16.104Z,1004.76
2017-07-11T03:04:56.993Z,1004.71
2017-07-11T03:05:37.884Z,1004.72
2017-07-11T03:06:18.778Z,1004.77
2017-07-11T03:06:59.673Z,1004.73
2017-07-11T03:07:40.558Z,1004.73
2017-07-11T03:08:21.445Z,1004.76
2017-07-11T03:09:02.344Z,1004.82
2017-07-11T03:09:43.237Z,1004.78
2017-07-11T03:10:24.150Z,1004.82
2017-07-11T03:11:05.051Z,1004.75
2017-07-11T03:11:45.940Z,1004.8
2017-07-11T03:12:26.844Z,1004.79
2017-07-11T03:13:07.717Z,1004.77
2017-07-11T03:13:48.595Z,1004.76
2017-07-11T03:14:29.488Z,1004.83
2017-07-11T03:15:10.386Z,1004.85
2017-07-11T03:15:51.275Z,1004.91
2017-07-11T03:16:32.160Z,1004.9
2017-07-11T03:17:13.048Z,1004.89
2017-07-11T03:17:53.942Z,1004.9
2017-07-11T03:18:34.837Z,1004.91
2017-07-11T03:19:15.725Z,1004.92
2017-07-11T03:19:56.632Z,1004.95
2017-07-11T03:20:37.498Z,1004.93
2017-07-11T03:21:18.384Z,1004.95
2017-07-11T03:21:59.271Z,1004.98
2017-07-11T03:22:40.162Z,1004.97
2017-07-11T03:23:21.047Z,1005.02
2017-07-11T03:24:01.939Z,1004.99
2017-07-11T03:24:42.823Z,1005.01
2017-07-11T03:25:23.708Z,1005.09
2017-07-11T03:26:04.604Z,1005.14
2017-07-11T03:26:45.492Z,1005.1
2017-07-11T03:27:26.378Z,1005.13
2017-07-11T03:28:07.263Z,1005.13
2017-07-11T03:28:48.153Z,1005.1
2017-07-11T03:29:29.041Z,1005.15
2017-07-11T03:30:09.925Z,1005.15
2017-07-11T03:30:50.825Z,1005.15
2017-07-11T03:31:31.720Z,1005.21
2017-07-11T03:32:12.610Z,1005.17
2017-07-11T03:32:53.497Z,1005.2
2017-07-11T03:33:34.372Z,1005.19
2017-07-11T03:34:15.252Z,1005.19
2017-07-11T03:34:56.131Z,1005.17
2017-07-11T03:35:37.017Z,1005.23
2017-07-11T03:36:17.915Z,1005.27
2017-07-11T03:36:58.825Z,1005.27
2017-07-11T03:37:39.702Z,1005.28
2017-07-11T03:38:20.588Z,1005.25
2017-07-11T03:39:01.475Z,1005.3
2017-07-11T03:39:42.355Z,1005.28
2017-07-11T03:40:23.256Z,1005.28
2017-07-11T03:41:04.142Z,1005.3
2017-07-11T03:41:45.030Z,1005.31
2017-07-11T03:42:25.940Z,1005.33
2017-07-11T03:43:06.821Z,1005.3
2017-07-11T03:43:47.715Z,1005.32
2017-07-11T03:44:28.611Z,1005.36
2017-07-11T03:45:09.505Z,1005.43
2017-07-11T03:45:50.401Z,1005.38
2017-07-11T03:46:31.287Z,1005.42
2017-07-11T03:47:12.174Z,1005.39
2017-07-11T03:47:53.068Z,1005.42
2017-07-11T03:48:33.952Z,1005.42
2017-07-11T03:49:14.849Z,1005.43
2017-07-11T03:49:55.735Z,1005.43
2017-07-11T03:50:36.616Z,1005.44
2017-07-11T03:51:17.510Z,1005.47
2017-07-11T03:51:58.398Z,1005.55
2017-07-11T03:52:39.289Z,1005.52
2017-07-11T03:53:20.175Z,1005.57
2017-07-11T03:54:01.061Z,1005.56
2017-07-11T03:54:41.961Z,1005.58
2017-07-11T03:55:22.854Z,1005.6
2017-07-11T03:56:03.736Z,1005.62
2017-07-11T03:56:44.626Z,1005.58
2017-07-11T03:57:25.512Z,1005.58
2017-07-11T03:58:06.390Z,1005.6
2017-07-11T03:58:47.286Z,1005.63
2017-07-11T03:59:28.172Z,1005.59
2017-07-11T04:00:09.049Z,1005.58
2017-07-11T04:00:49.929Z,1005.62
2017-07-11T04:01:30.823Z,1005.6
2017-07-11T04:02:11.710Z,1005.61
2017-07-11T04:02:52.601Z,1005.63
2017-07-11T04:03:33.497Z,1005.63
2017-07-11T04:04:14.385Z,1005.62
2017-07-11T04:04:55.265Z,1005.59
2017-07-11T04:05:36.171Z,1005.64
2017-07-11T04:06:17.045Z,1005.6
2017-07-11T04:06:57.926Z,1005.59
2017-07-11T04:07:38.808Z,1005.59
2017-07-11T04:08:19.690Z,1005.61
2017-07-11T04:09:00.592Z,1005.57
2017-07-11T04:09:41.470Z,1005.59
2017-07-11T04:10:22.333Z,1005.58
2017-07-11T04:11:03.242Z,1005.62
2017-07-11T04:11:44.133Z,1005.58
2017-07-11T04:12:25.008Z,1005.6
2017-07-11T04:13:05.897Z,1005.62
2017-07-11T04:13:46.804Z,1005.64
2017-07-11T04:14:27.693Z,1005.59
2017-07-11T04:15:08.591Z,1005.65
2017-07-11T04:15:49.481Z,1005.66
2017-07-11T04:16:30.365Z,1005.71
2017-07-11T04:17:11.266Z,1005.73
2017-07-11T04:17:52.161Z,1005.72
2017-07-11T04:18:33.060Z,1005.74
2017-07-11T04:19:13.955Z,1005.75
2017-07-11T04:19:54.855Z,1005.69
2017-07-11T04:20:35.726Z,1005.7
2017-07-11T04:21:16.617Z,1005.73
2017-07-11T04:21:57.543Z,1005.71
2017-07-11T04:22:38.444Z,1005.7
2017-07-11T04:23:19.330Z,1005.74
2017-07-11T04:24:00.212Z,1005.73
2017-07-11T04:24:41.108Z,1005.71
2017-07-11T04:25:22.005Z,1005.73
2017-07-11T04:26:02.888Z,1005.73
2017-07-11T04:26:43.787Z,1005.75
2017-07-11T04:27:24.678Z,1005.74
2017-07-11T04:28:05.615Z,1005.74
2017-07-11T04:28:46.503Z,1005.75
2017-07-11T04:29:27.392Z,1005.72
2017-07-11T04:30:08.283Z,1005.72
2017-07-11T04:30:49.174Z,1005.72
2017-07-11T04:31:30.075Z,1005.74
2017-07-11T04:32:10.959Z,1005.75
2017-07-11T04:32:51.852Z,1005.73
2017-07-11T04:33:32.751Z,1005.76
2017-07-11T04:34:13.631Z,1005.76
2017-07-11T04:34:54.523Z,1005.74
2017-07-11T04:35:35.423Z,1005.73
2017-07-11T04:36:16.319Z,1005.76
2017-07-11T04:36:57.216Z,1005.72
2017-07-11T04:37:38.151Z,1005.74
2017-07-11T04:38:19.044Z,1005.73
2017-07-11T04:38:59.947Z,1005.76
2017-07-11T04:39:40.858Z,1005.74
2017-07-11T04:40:21.743Z,1005.75
2017-07-11T04:41:02.636Z,1005.72
2017-07-11T04:41:43.528Z,1005.72
2017-07-11T04:42:24.413Z,1005.75
2017-07-11T04:43:05.296Z,1005.73
2017-07-11T04:43:46.183Z,1005.76
2017-07-11T04:44:27.079Z,1005.76
2017-07-11T04:45:07.968Z,1005.75
2017-07-11T04:45:48.857Z,1005.77
2017-07-11T04:46:29.746Z,1005.79
2017-07-11T04:47:10.627Z,1005.8
2017-07-11T04:47:51.523Z,1005.81
2017-07-11T04:48:32.419Z,1005.81
2017-07-11T04:49:13.306Z,1005.79
2017-07-11T04:49:54.197Z,1005.77
2017-07-11T04:50:35.093Z,1005.83
2017-07-11T04:51:15.977Z,1005.78
2017-07-11T04:51:56.864Z,1005.81
2017-07-11T04:52:37.751Z,1005.81
2017-07-11T04:53:18.642Z,1005.85
2017-07-11T04:53:59.572Z,1005.86
2017-07-11T04:54:40.468Z,1005.85
2017-07-11T04:55:21.356Z,1005.83
2017-07-11T04:56:02.250Z,1005.81
2017-07-11T04:56:43.146Z,1005.88
2017-07-11T04:57:24.035Z,1005.88
2017-07-11T04:58:04.928Z,1005.88
2017-07-11T04:58:45.814Z,1005.89
2017-07-11T04:59:26.696Z,1005.87
2017-07-11T05:00:07.596Z,1005.91
2017-07-11T05:00:48.491Z,1005.91
2017-07-11T05:01:29.381Z,1005.92
2017-07-11T05:02:10.272Z,1005.97
2017-07-11T05:02:51.167Z,1006.01
2017-07-11T05:03:32.059Z,1005.98
2017-07-11T05:04:12.945Z,1005.95
2017-07-11T05:04:53.835Z,1006
2017-07-11T05:05:34.723Z,1006.02
2017-07-11T05:06:15.634Z,1006.02
2017-07-11T05:06:56.527Z,1006.03
2017-07-11T05:07:37.417Z,1006.01
2017-07-11T05:08:18.312Z,1005.99
2017-07-11T05:08:59.204Z,1006.02
2017-07-11T05:09:40.105Z,1005.96
2017-07-11T05:10:21.004Z,1005.98
2017-07-11T05:11:01.885Z,1005.97
2017-07-11T05:11:42.783Z,1005.99
2017-07-11T05:12:23.674Z,1005.98
2017-07-11T05:13:04.572Z,1006
2017-07-11T05:13:45.480Z,1005.98
2017-07-11T05:14:26.355Z,1005.97
2017-07-11T05:15:07.242Z,1005.96
2017-07-11T05:15:48.148Z,1006.01
2017-07-11T05:16:29.060Z,1005.97
2017-07-11T05:17:09.949Z,1005.98
2017-07-11T05:17:50.840Z,1005.95
2017-07-11T05:18:31.737Z,1005.97
2017-07-11T05:19:12.638Z,1005.97
2017-07-11T05:19:53.531Z,1005.96
2017-07-11T05:20:34.433Z,1005.98
2017-07-11T05:21:15.313Z,1006
2017-07-11T05:21:56.199Z,1006.07
2017-07-11T05:22:37.091Z,1006.03
2017-07-11T05:23:17.993Z,1006.08
2017-07-11T05:23:58.881Z,1006.08
2017-07-11T05:24:39.768Z,1006.09
2017-07-11T05:25:20.658Z,1006.09
2017-07-11T05:26:01.551Z,1006.1
2017-07-11T05:26:42.442Z,1006.08
2017-07-11T05:27:23.327Z,1006.11
2017-07-11T05:28:04.221Z,1006.11
2017-07-11T05:28:45.119Z,1006.09
2017-07-11T05:29:26.010Z,1006.14
2017-07-11T05:30:06.897Z,1006.13
2017-07-11T05:30:47.795Z,1006.15
2017-07-11T05:31:28.684Z,1006.16
2017-07-11T05:32:09.574Z,1006.18
2017-07-11T05:32:50.461Z,1006.14
2017-07-11T05:33:31.356Z,1006.14
2017-07-11T05:34:12.250Z,1006.09
2017-07-11T05:34:53.133Z,1006.08
2017-07-11T05:35:34.024Z,1006.05
2017-07-11T05:36:14.912Z,1006.09
2017-07-11T05:36:55.800Z,1006.09
2017-07-11T05:37:36.694Z,1006.1
2017-07-11T05:38:17.585Z,1006.12
2017-07-11T05:38:58.479Z,1006.1
2017-07-11T05:39:39.375Z,1006.11
2017-07-11T05:40:20.271Z,1006.09
2017-07-11T05:41:01.161Z,1006.12
2017-07-11T05:41:42.057Z,1006.12
2017-07-11T05:42:22.947Z,1006.12
2017-07-11T05:43:03.844Z,1006.07
2017-07-11T05:43:44.735Z,1006.12
2017-07-11T05:44:25.629Z,1006.11
2017-07-11T05:45:06.521Z,1006.11
2017-07-11T05:45:47.410Z,1006.12
2017-07-11T05:46:28.303Z,1006.11
2017-07-11T05:47:09.191Z,1006.11
2017-07-11T05:47:50.093Z,1006.09
2017-07-11T05:48:30.978Z,1006.11
2017-07-11T05:49:11.868Z,1006.08
2017-07-11T05:49:52.779Z,1006.1
2017-07-11T05:50:33.655Z,1006.07
2017-07-11T05:51:14.542Z,1006.09
2017-07-11T05:51:55.448Z,1006.1
2017-07-11T05:52:36.333Z,1006.14
2017-07-11T05:53:17.224Z,1006.11
2017-07-11T05:53:58.119Z,1006.09
2017-07-11T05:54:39.009Z,1006.09
2017-07-11T05:55:19.890Z,1006.14
2017-07-11T05:56:00.788Z,1006.14
2017-07-11T05:56:41.690Z,1006.15
2017-07-11T05:57:22.611Z,1006.15
2017-07-11T05:58:03.568Z,1006.14
2017-07-11T05:58:44.388Z,1006.19
2017-07-11T05:59:25.281Z,1006.15
2017-07-11T06:00:06.172Z,1006.15
2017-07-11T06:00:47.058Z,1006.15
2017-07-11T06:01:27.959Z,1006.17
2017-07-11T06:02:08.843Z,1006.16
2017-07-11T06:02:49.747Z,1006.17
2017-07-11T06:03:30.640Z,1006.17
2017-07-11T06:04:11.540Z,1006.16
2017-07-11T06:04:52.436Z,1006.15
2017-07-11T06:05:33.334Z,1006.19
2017-07-11T06:06:14.251Z,1006.2
2017-07-11T06:06:55.139Z,1006.19
2017-07-11T06:07:36.030Z,1006.21
2017-07-11T06:08:16.920Z,1006.21
2017-07-11T06:08:57.803Z,1006.19
2017-07-11T06:09:38.690Z,1006.19
2017-07-11T06:10:19.582Z,1006.21
2017-07-11T06:11:00.478Z,1006.18
2017-07-11T06:11:41.382Z,1006.17
2017-07-11T06:12:22.274Z,1006.19
2017-07-11T06:13:03.165Z,1006.16
2017-07-11T06:13:44.085Z,1006.14
2017-07-11T06:14:25.011Z,1006.18
2017-07-11T06:15:05.910Z,1006.18
2017-07-11T06:15:46.798Z,1006.16
2017-07-11T06:16:27.727Z,1006.17
2017-07-11T06:17:08.615Z,1006.19
2017-07-11T06:17:49.521Z,1006.21
2017-07-11T06:18:30.416Z,1006.19
2017-07-11T06:19:11.312Z,1006.2
2017-07-11T06:19:52.219Z,1006.16
2017-07-11T06:20:33.107Z,1006.23
2017-07-11T06:21:13.989Z,1006.21
2017-07-11T06:21:54.882Z,1006.19
2017-07-11T06:22:35.773Z,1006.23
2017-07-11T06:23:16.681Z,1006.24
2017-07-11T06:23:57.578Z,1006.22
2017-07-11T06:24:38.450Z,1006.23
2017-07-11T06:25:19.374Z,1006.23
2017-07-11T06:26:00.268Z,1006.21
2017-07-11T06:26:41.167Z,1006.22
2017-07-11T06:27:22.061Z,1006.23
2017-07-11T06:28:02.946Z,1006.21
2017-07-11T06:28:43.835Z,1006.25
2017-07-11T06:29:24.737Z,1006.25
2017-07-11T06:30:05.632Z,1006.27
2017-07-11T06:30:46.534Z,1006.26
2017-07-11T06:31:27.438Z,1006.26
2017-07-11T06:32:08.331Z,1006.2
2017-07-11T06:32:49.231Z,1006.23
2017-07-11T06:33:30.145Z,1006.27
2017-07-11T06:34:11.022Z,1006.24
2017-07-11T06:34:51.919Z,1006.22
2017-07-11T06:35:32.813Z,1006.21
2017-07-11T06:36:13.706Z,1006.23
2017-07-11T06:36:54.610Z,1006.21
2017-07-11T06:37:35.506Z,1006.21
2017-07-11T06:38:16.407Z,1006.24
2017-07-11T06:38:57.299Z,1006.23
2017-07-11T06:39:38.198Z,1006.27
2017-07-11T06:40:19.101Z,1006.25
2017-07-11T06:40:59.991Z,1006.27
2017-07-11T06:41:40.899Z,1006.32
2017-07-11T06:42:21.795Z,1006.32
2017-07-11T06:43:02.690Z,1006.33
2017-07-11T06:43:43.583Z,1006.3
2017-07-11T06:44:24.477Z,1006.32
2017-07-11T06:45:05.384Z,1006.33
2017-07-11T06:45:46.272Z,1006.32
2017-07-11T06:46:27.164Z,1006.3
2017-07-11T06:47:08.049Z,1006.3
2017-07-11T06:47:48.953Z,1006.33
2017-07-11T06:48:29.846Z,1006.32
2017-07-11T06:49:10.756Z,1006.32
2017-07-11T06:49:51.648Z,1006.3
2017-07-11T06:50:32.544Z,1006.31
2017-07-11T06:51:13.447Z,1006.32
2017-07-11T06:51:54.344Z,1006.35
2017-07-11T06:52:35.239Z,1006.29
2017-07-11T06:53:16.132Z,1006.28
2017-07-11T06:53:57.038Z,1006.29
2017-07-11T06:54:37.948Z,1006.26
2017-07-11T06:55:18.835Z,1006.29
2017-07-11T06:55:59.753Z,1006.29
2017-07-11T06:56:40.658Z,1006.33
2017-07-11T06:57:21.549Z,1006.35
2017-07-11T06:58:02.446Z,1006.36
2017-07-11T06:58:43.332Z,1006.37
2017-07-11T06:59:24.230Z,1006.37
2017-07-11T07:00:05.121Z,1006.34
2017-07-11T07:00:46.023Z,1006.32
2017-07-11T07:01:26.911Z,1006.34
2017-07-11T07:02:07.804Z,1006.36
2017-07-11T07:02:48.689Z,1006.37
2017-07-11T07:03:29.587Z,1006.34
2017-07-11T07:04:10.472Z,1006.32
2017-07-11T07:04:51.357Z,1006.35
2017-07-11T07:05:32.257Z,1006.31
2017-07-11T07:06:13.161Z,1006.29
2017-07-11T07:06:54.054Z,1006.32
2017-07-11T07:07:34.951Z,1006.32
2017-07-11T07:08:15.844Z,1006.31
2017-07-11T07:08:56.748Z,1006.34
2017-07-11T07:09:37.650Z,1006.32
2017-07-11T07:10:18.546Z,1006.31
2017-07-11T07:10:59.439Z,1006.31
2017-07-11T07:11:40.331Z,1006.3
2017-07-11T07:12:21.243Z,1006.31
2017-07-11T07:13:02.128Z,1006.3
2017-07-11T07:13:43.042Z,1006.33
2017-07-11T07:14:23.924Z,1006.31
2017-07-11T07:15:04.815Z,1006.37
2017-07-11T07:15:45.714Z,1006.34
2017-07-11T07:16:26.619Z,1006.35
2017-07-11T07:17:07.511Z,1006.34
2017-07-11T07:17:48.417Z,1006.37
2017-07-11T07:18:29.329Z,1006.37
2017-07-11T07:19:10.249Z,1006.39
2017-07-11T07:19:51.140Z,1006.36
2017-07-11T07:20:32.038Z,1006.36
2017-07-11T07:21:12.936Z,1006.37
2017-07-11T07:21:53.834Z,1006.34
2017-07-11T07:22:34.729Z,1006.38
2017-07-11T07:23:15.618Z,1006.38
2017-07-11T07:23:56.534Z,1006.37
2017-07-11T07:24:37.416Z,1006.38
2017-07-11T07:25:18.323Z,1006.34
2017-07-11T07:25:59.222Z,1006.36
2017-07-11T07:26:40.088Z,1006.35
2017-07-11T07:27:20.980Z,1006.34
2017-07-11T07:28:01.882Z,1006.37
2017-07-11T07:28:42.787Z,1006.35
2017-07-11T07:29:23.672Z,1006.32
2017-07-11T07:30:04.574Z,1006.32
2017-07-11T07:30:45.470Z,1006.32
2017-07-11T07:31:26.375Z,1006.36
2017-07-11T07:32:07.257Z,1006.34
2017-07-11T07:32:48.141Z,1006.4
2017-07-11T07:33:29.036Z,1006.41
2017-07-11T07:34:09.925Z,1006.42
2017-07-11T07:34:50.820Z,1006.49
2017-07-11T07:35:31.713Z,1006.53
2017-07-11T07:37:10.130Z,1006.55
2017-07-11T07:37:51.045Z,1006.57
2017-07-11T07:38:31.929Z,1006.55
2017-07-11T07:39:12.837Z,1006.53
2017-07-11T07:39:53.743Z,1006.53
2017-07-11T07:40:34.641Z,1006.56
2017-07-11T07:41:15.536Z,1006.59
2017-07-11T07:41:56.430Z,1006.59
2017-07-11T07:42:37.331Z,1006.58
2017-07-11T07:43:18.234Z,1006.55
2017-07-11T07:43:59.124Z,1006.58
2017-07-11T07:44:40.017Z,1006.54
2017-07-11T07:45:20.918Z,1006.54
2017-07-11T07:46:01.835Z,1006.59
2017-07-11T07:46:42.734Z,1006.53
2017-07-11T07:47:23.629Z,1006.55
2017-07-11T07:48:04.549Z,1006.56
2017-07-11T07:48:45.447Z,1006.54
2017-07-11T07:49:26.349Z,1006.54
2017-07-11T07:50:07.247Z,1006.53
2017-07-11T07:50:48.147Z,1006.55
2017-07-11T07:51:29.037Z,1006.57
2017-07-11T07:52:09.940Z,1006.54
2017-07-11T07:52:50.843Z,1006.59
2017-07-11T07:53:31.759Z,1006.56
2017-07-11T07:54:12.654Z,1006.56
2017-07-11T07:54:53.548Z,1006.56
2017-07-11T07:55:34.444Z,1006.59
2017-07-11T07:56:15.357Z,1006.51
2017-07-11T07:56:56.256Z,1006.55
2017-07-11T07:57:37.151Z,1006.52
2017-07-11T07:58:18.057Z,1006.53
2017-07-11T07:58:58.968Z,1006.53
2017-07-11T07:59:39.904Z,1006.51
2017-07-11T08:00:20.809Z,1006.49
2017-07-11T08:01:01.724Z,1006.5
2017-07-11T08:01:42.691Z,1006.47
2017-07-11T08:02:23.540Z,1006.49
2017-07-11T08:03:04.456Z,1006.53
2017-07-11T08:03:45.371Z,1006.49
2017-07-11T08:04:26.273Z,1006.52
2017-07-11T08:05:07.195Z,1006.49
2017-07-11T08:05:48.144Z,1006.54
2017-07-11T08:06:29.041Z,1006.51
2017-07-11T08:07:09.942Z,1006.57
2017-07-11T08:07:50.851Z,1006.53
2017-07-11T08:08:31.753Z,1006.59
2017-07-11T08:09:12.651Z,1006.57
2017-07-11T08:09:53.551Z,1006.57
2017-07-11T08:10:34.448Z,1006.57
2017-07-11T08:11:15.359Z,1006.58
2017-07-11T08:11:56.270Z,1006.56
2017-07-11T08:12:37.189Z,1006.59
2017-07-11T08:13:18.104Z,1006.59
2017-07-11T08:13:59.004Z,1006.59
2017-07-11T08:14:39.916Z,1006.59
2017-07-11T08:15:20.815Z,1006.61
2017-07-11T08:16:01.740Z,1006.62
2017-07-11T08:16:42.646Z,1006.62
2017-07-11T08:17:23.581Z,1006.58